createdAt,value
2023-04-05T00:02:49.532Z,3.83
2023-04-05T00:07:55.582Z,4.82
2023-04-05T00:13:01.348Z,3.13
2023-04-05T00:18:09.231Z,4.65
2023-04-05T00:23:14.831Z,7.53
2023-04-05T00:28:20.362Z,6.18
2023-04-05T00:33:28.128Z,5.22
2023-04-05T00:38:33.222Z,5.53
2023-04-05T00:43:38.369Z,3.88
2023-04-05T00:48:46.312Z,4.78
2023-04-05T00:53:53.197Z,5.57
2023-04-05T00:58:58.483Z,5.00
2023-04-05T01:04:07.852Z,6.00
2023-04-05T01:09:24.679Z,6.93
2023-04-05T01:14:29.703Z,6.00
2023-04-05T01:19:43.225Z,6.75
2023-04-05T01:25:15.056Z,4.28
2023-04-05T01:30:24.576Z,6.85
2023-04-05T01:35:42.763Z,3.17
2023-04-05T01:40:48.083Z,6.32
2023-04-05T01:45:55.865Z,5.65
2023-04-05T01:51:01.148Z,5.18
2023-04-05T01:56:06.353Z,4.88
2023-04-05T02:01:14.099Z,5.45
2023-04-05T02:06:19.329Z,6.72
2023-04-05T02:11:24.320Z,6.70
2023-04-05T02:16:33.640Z,5.70
2023-04-05T02:21:39.419Z,6.13
2023-04-05T02:26:44.565Z,6.72
2023-04-05T02:31:52.198Z,5.43
2023-04-05T02:36:57.318Z,5.78
2023-04-05T02:42:02.447Z,7.70
2023-04-05T02:47:10.192Z,6.90
2023-04-05T02:52:15.287Z,4.88
2023-04-05T02:57:21.166Z,4.07
2023-04-05T03:02:29.279Z,5.18
2023-04-05T03:07:35.828Z,4.03
2023-04-05T03:12:40.880Z,4.90
2023-04-05T03:17:48.817Z,5.97
2023-04-05T03:22:53.969Z,4.60
2023-04-05T03:27:59.065Z,6.13
2023-04-05T03:33:07.727Z,5.90
2023-04-05T03:38:12.931Z,5.15
2023-04-05T03:43:17.997Z,4.97
2023-04-05T03:48:25.934Z,4.88
2023-04-05T03:53:30.985Z,4.90
2023-04-05T03:58:36.011Z,4.82
2023-04-05T04:03:43.629Z,7.00
2023-04-05T04:08:48.701Z,8.13
2023-04-05T04:13:53.806Z,5.18
2023-04-05T04:19:01.514Z,6.05
2023-04-05T04:24:06.658Z,18.67
2023-04-05T04:29:13.177Z,24.40
2023-04-05T04:34:21.502Z,24.10
2023-04-05T04:39:27.752Z,22.88
2023-04-05T04:44:33.248Z,14.63
2023-04-05T04:49:41.807Z,7.43
2023-04-05T04:54:47.675Z,11.57
2023-04-05T04:59:52.678Z,10.15
2023-04-05T05:05:00.444Z,7.47
2023-04-05T05:10:05.801Z,8.50
2023-04-05T05:15:13.422Z,9.10
2023-04-05T05:20:21.203Z,7.47
2023-04-05T05:25:26.453Z,8.52
2023-04-05T05:30:32.262Z,8.65
2023-04-05T05:35:41.300Z,7.43
2023-04-05T05:40:46.852Z,7.65
2023-04-05T05:45:51.962Z,9.48
2023-04-05T05:51:09.851Z,8.98
2023-04-05T05:56:15.087Z,9.27
2023-04-05T06:01:23.465Z,10.07
2023-04-05T06:06:31.259Z,6.95
2023-04-05T06:11:40.950Z,9.00
2023-04-05T06:16:51.597Z,10.25
2023-04-05T06:22:01.105Z,8.10
2023-04-05T06:27:06.308Z,8.10
2023-04-05T06:32:11.417Z,8.18
2023-04-05T06:37:19.081Z,8.15
2023-04-05T06:42:26.391Z,9.13
2023-04-05T06:47:37.429Z,8.07
2023-04-05T06:52:45.081Z,8.43
2023-04-05T06:57:50.436Z,9.57
2023-04-05T07:02:55.657Z,10.00
2023-04-05T07:08:03.729Z,8.13
2023-04-05T07:13:09.075Z,5.97
2023-04-05T07:18:15.947Z,9.88
2023-04-05T07:23:23.779Z,10.75
2023-04-05T07:28:29.010Z,8.13
2023-04-05T07:33:34.245Z,7.70
2023-04-05T07:38:42.156Z,9.48
2023-04-05T07:43:47.346Z,5.72
2023-04-05T07:48:52.600Z,7.03
2023-04-05T07:54:03.069Z,7.22
2023-04-05T07:59:08.547Z,8.07
2023-04-05T08:04:13.761Z,5.55
2023-04-05T08:09:21.586Z,6.32
2023-04-05T08:14:26.665Z,5.00
2023-04-05T08:19:31.934Z,7.47
2023-04-05T08:24:40.034Z,7.47
2023-04-05T08:29:45.183Z,7.50
2023-04-05T08:34:50.298Z,7.25
2023-04-05T08:39:58.005Z,7.55
2023-04-05T08:45:03.828Z,7.95
2023-04-05T08:50:10.315Z,6.47
2023-04-05T08:55:18.275Z,6.78
2023-04-05T09:00:23.767Z,7.30
2023-04-05T09:05:29.311Z,9.82
2023-04-05T09:10:37.192Z,11.00
2023-04-05T09:15:42.557Z,6.88
2023-04-05T09:20:47.670Z,11.77
2023-04-05T09:25:55.569Z,11.02
2023-04-05T09:31:00.635Z,7.38
2023-04-05T09:36:06.035Z,6.13
2023-04-05T09:41:14.839Z,8.30
2023-04-05T09:46:34.360Z,5.53
2023-04-05T09:51:40.833Z,8.43
2023-04-05T09:56:58.590Z,7.72
2023-04-05T10:02:04.203Z,5.88
2023-04-05T10:07:10.466Z,8.32
2023-04-05T10:12:24.638Z,6.25
2023-04-05T10:17:32.381Z,9.52
2023-04-05T10:22:41.523Z,6.28
2023-04-05T10:27:51.893Z,6.07
2023-04-05T10:38:15.986Z,7.32
2023-04-05T10:43:25.104Z,7.25
2023-04-05T10:48:40.428Z,7.72
2023-04-05T10:53:45.511Z,8.52
2023-04-05T10:58:54.265Z,9.63
2023-04-05T11:03:59.453Z,7.60
2023-04-05T11:09:15.549Z,9.00
2023-04-05T11:14:26.036Z,8.15
2023-04-05T11:19:52.609Z,8.95
2023-04-05T11:24:59.584Z,6.32
2023-04-05T11:30:08.756Z,6.75
2023-04-05T11:35:18.085Z,7.82
2023-04-05T11:40:31.418Z,7.40
2023-04-05T11:45:40.317Z,8.30
2023-04-05T11:50:45.519Z,7.80
2023-04-05T11:55:52.033Z,8.68
2023-04-05T12:01:03.893Z,6.25
2023-04-05T12:06:10.221Z,7.88
2023-04-05T12:11:16.027Z,9.02
2023-04-05T12:16:23.986Z,7.22
2023-04-05T12:21:30.855Z,10.23
2023-04-05T12:26:38.088Z,6.55
2023-04-05T12:31:46.887Z,9.65
2023-04-05T12:36:52.673Z,13.57
2023-04-05T12:42:02.642Z,11.57
2023-04-05T12:47:11.393Z,8.52
2023-04-05T12:52:22.964Z,6.53
2023-04-05T12:57:35.343Z,9.32
2023-04-05T13:02:43.136Z,17.60
2023-04-05T13:07:48.298Z,10.60
2023-04-05T13:12:53.625Z,7.53
2023-04-05T13:18:01.356Z,7.28
2023-04-05T13:23:11.162Z,9.18
2023-04-05T13:28:16.620Z,6.38
2023-04-05T13:33:24.414Z,8.55
2023-04-05T13:38:29.662Z,9.57
2023-04-05T13:43:34.852Z,9.57
2023-04-05T13:48:42.673Z,5.75
2023-04-05T13:53:47.783Z,6.05
2023-04-05T13:58:52.950Z,4.60
2023-04-05T14:04:00.684Z,7.05
2023-04-05T14:09:05.983Z,6.47
2023-04-05T14:14:11.050Z,7.93
2023-04-05T14:19:19.893Z,6.35
2023-04-05T14:24:25.184Z,7.57
2023-04-05T14:29:30.579Z,9.18
2023-04-05T14:34:38.351Z,8.75
2023-04-05T14:39:43.642Z,8.68
2023-04-05T14:44:48.831Z,7.32
2023-04-05T14:49:56.622Z,9.07
2023-04-05T14:55:01.811Z,11.00
2023-04-05T15:00:08.520Z,16.65
2023-04-05T15:05:16.616Z,19.25
2023-04-05T15:10:22.000Z,17.05
2023-04-05T15:15:27.209Z,11.57
2023-04-05T15:20:35.227Z,11.65
2023-04-05T15:25:40.753Z,14.15
2023-04-05T15:30:46.313Z,16.25
2023-04-05T15:35:54.120Z,13.88
2023-04-05T15:40:59.392Z,12.90
2023-04-05T15:46:05.360Z,13.23
2023-04-05T15:51:13.149Z,11.52
2023-04-05T15:56:18.543Z,7.72
2023-04-05T16:01:23.808Z,8.32
2023-04-05T16:06:31.914Z,11.02
2023-04-05T16:11:37.102Z,12.18
2023-04-05T16:16:53.279Z,13.88
2023-04-05T16:22:03.675Z,20.73
2023-04-05T16:27:09.080Z,9.30
2023-04-05T16:32:14.443Z,13.00
2023-04-05T16:37:22.494Z,9.48
2023-04-05T16:42:27.901Z,8.20
2023-04-05T16:47:33.225Z,8.50
2023-04-05T16:52:41.077Z,13.07
2023-04-05T16:57:46.285Z,8.70
2023-04-05T17:02:52.187Z,31.55
2023-04-05T17:08:00.147Z,22.55
2023-04-05T17:13:05.365Z,20.92
2023-04-05T17:18:10.676Z,49.72
2023-04-05T17:23:18.900Z,48.75
2023-04-05T17:28:24.119Z,38.15
2023-04-05T17:33:29.444Z,45.03
2023-04-05T17:38:37.463Z,44.05
2023-04-05T17:43:42.741Z,46.85
2023-04-05T17:48:47.970Z,40.50
2023-04-05T17:53:55.903Z,46.80
2023-04-05T17:59:01.257Z,61.60
2023-04-05T18:04:08.277Z,60.28
2023-04-05T18:09:18.115Z,68.50
2023-04-05T18:14:23.389Z,52.88
2023-04-05T18:19:28.654Z,62.47
2023-04-05T18:24:36.524Z,68.57
2023-04-05T18:29:41.834Z,39.78
2023-04-05T18:34:47.194Z,30.45
2023-04-05T18:39:55.039Z,29.52
2023-04-05T18:45:00.681Z,22.58
2023-04-05T18:50:07.955Z,26.85
2023-04-05T18:55:17.400Z,18.20
2023-04-05T19:00:23.083Z,25.80
2023-04-05T19:05:28.385Z,23.73
2023-04-05T19:10:36.941Z,19.05
2023-04-05T19:15:42.443Z,19.98
2023-04-05T19:20:47.835Z,21.25
2023-04-05T19:25:55.860Z,18.15
2023-04-05T19:31:01.147Z,14.80
2023-04-05T19:36:06.626Z,16.30
2023-04-05T19:41:15.032Z,15.63
2023-04-05T19:46:20.437Z,17.80
2023-04-05T19:51:30.021Z,18.02
2023-04-05T19:56:39.440Z,16.03
2023-04-05T20:01:47.611Z,16.45
2023-04-05T20:06:55.495Z,22.58
2023-04-05T20:12:05.963Z,13.13
2023-04-05T20:17:12.627Z,19.52
2023-04-05T20:22:17.820Z,13.63
2023-04-05T20:27:25.629Z,13.27
2023-04-05T20:32:30.959Z,15.88
2023-04-05T20:37:36.541Z,14.30
2023-04-05T20:42:44.323Z,11.43
2023-04-05T20:47:49.605Z,13.52
2023-04-05T20:52:54.819Z,13.25
2023-04-05T20:58:02.644Z,14.27
2023-04-05T21:03:07.862Z,12.55
2023-04-05T21:08:13.355Z,14.25
2023-04-05T21:13:21.269Z,10.05
2023-04-05T21:18:27.311Z,9.77
2023-04-05T21:23:34.654Z,11.40
2023-04-05T21:28:42.533Z,13.75
2023-04-05T21:33:48.161Z,51.60
2023-04-05T21:38:53.312Z,20.63
2023-04-05T21:44:01.316Z,36.50
2023-04-05T21:49:06.752Z,19.10
2023-04-05T21:54:12.366Z,18.02
2023-04-05T21:59:20.293Z,23.63
2023-04-05T22:04:26.737Z,22.88
2023-04-05T22:09:32.076Z,18.80
2023-04-05T22:14:39.892Z,21.77
2023-04-05T22:19:46.932Z,14.40
2023-04-05T22:24:52.150Z,17.35
2023-04-05T22:30:00.750Z,19.95
2023-04-05T22:35:07.073Z,18.70
2023-04-05T22:40:13.834Z,19.42
2023-04-05T22:45:21.632Z,18.58
2023-04-05T22:50:26.900Z,17.35
2023-04-05T22:55:32.655Z,18.98
2023-04-05T23:00:40.842Z,23.13
2023-04-05T23:05:46.024Z,18.15
2023-04-05T23:10:51.703Z,22.55
2023-04-05T23:15:59.523Z,21.33
2023-04-05T23:21:04.742Z,29.58
2023-04-05T23:26:10.066Z,24.95
2023-04-05T23:31:18.063Z,30.67
2023-04-05T23:36:24.256Z,44.25
2023-04-05T23:41:29.473Z,27.10
2023-04-05T23:46:37.515Z,44.25
2023-04-05T23:51:43.257Z,31.35
2023-04-05T23:56:48.472Z,32.65
